sensor_id;sensor_type;location;lat;lon;timestamp;P1;durP1;ratioP1;P2;durP2;ratioP2
27895;SDS011;15241;48.374;10.876;2023-04-03T00:01:26;5.87;;;3.27;;
27895;SDS011;15241;48.374;10.876;2023-04-03T00:06:25;3.45;;;3.10;;
27895;SDS011;15241;48.374;10.876;2023-04-03T00:11:24;4.75;;;3.42;;
27895;SDS011;15241;48.374;10.876;2023-04-03T00:16:23;4.80;;;3.60;;
27895;SDS011;15241;48.374;10.876;2023-04-03T00:21:22;5.30;;;3.05;;
27895;SDS011;15241;48.374;10.876;2023-04-03T00:26:21;5.40;;;3.65;;
27895;SDS011;15241;48.374;10.876;2023-04-03T00:31:20;4.08;;;2.77;;
27895;SDS011;15241;48.374;10.876;2023-04-03T00:36:19;3.80;;;2.77;;
27895;SDS011;15241;48.374;10.876;2023-04-03T00:41:18;2.72;;;2.52;;
27895;SDS011;15241;48.374;10.876;2023-04-03T00:46:17;3.35;;;2.62;;
27895;SDS011;15241;48.374;10.876;2023-04-03T00:51:17;3.72;;;2.27;;
27895;SDS011;15241;48.374;10.876;2023-04-03T00:56:19;5.33;;;2.50;;
27895;SDS011;15241;48.374;10.876;2023-04-03T01:01:20;3.45;;;2.33;;
27895;SDS011;15241;48.374;10.876;2023-04-03T01:06:23;2.37;;;2.10;;
27895;SDS011;15241;48.374;10.876;2023-04-03T01:11:25;3.72;;;2.45;;
27895;SDS011;15241;48.374;10.876;2023-04-03T01:16:24;3.65;;;2.45;;
27895;SDS011;15241;48.374;10.876;2023-04-03T01:27:06;2.62;;;2.22;;
27895;SDS011;15241;48.374;10.876;2023-04-03T01:32:06;2.47;;;2.27;;
27895;SDS011;15241;48.374;10.876;2023-04-03T01:37:05;4.95;;;2.30;;
27895;SDS011;15241;48.374;10.876;2023-04-03T01:42:05;3.27;;;2.20;;
27895;SDS011;15241;48.374;10.876;2023-04-03T01:47:05;4.42;;;2.08;;
27895;SDS011;15241;48.374;10.876;2023-04-03T01:52:04;4.47;;;2.35;;
27895;SDS011;15241;48.374;10.876;2023-04-03T01:57:03;4.45;;;1.98;;
27895;SDS011;15241;48.374;10.876;2023-04-03T02:02:02;3.52;;;2.30;;
27895;SDS011;15241;48.374;10.876;2023-04-03T02:07:01;6.05;;;2.62;;
27895;SDS011;15241;48.374;10.876;2023-04-03T02:12:00;6.33;;;2.50;;
27895;SDS011;15241;48.374;10.876;2023-04-03T02:17:00;3.52;;;2.00;;
27895;SDS011;15241;48.374;10.876;2023-04-03T02:21:59;4.92;;;3.02;;
27895;SDS011;15241;48.374;10.876;2023-04-03T02:26:58;2.22;;;1.80;;
27895;SDS011;15241;48.374;10.876;2023-04-03T02:31:57;3.30;;;2.50;;
27895;SDS011;15241;48.374;10.876;2023-04-03T02:36:56;3.72;;;1.82;;
27895;SDS011;15241;48.374;10.876;2023-04-03T02:41:55;1.98;;;1.77;;
27895;SDS011;15241;48.374;10.876;2023-04-03T02:46:54;2.65;;;2.00;;
27895;SDS011;15241;48.374;10.876;2023-04-03T02:51:53;3.77;;;2.45;;
27895;SDS011;15241;48.374;10.876;2023-04-03T02:56:52;3.12;;;2.20;;
27895;SDS011;15241;48.374;10.876;2023-04-03T03:01:51;2.47;;;2.05;;
27895;SDS011;15241;48.374;10.876;2023-04-03T03:06:50;3.87;;;2.10;;
27895;SDS011;15241;48.374;10.876;2023-04-03T03:11:49;3.72;;;2.35;;
27895;SDS011;15241;48.374;10.876;2023-04-03T03:16:48;4.00;;;2.22;;
27895;SDS011;15241;48.374;10.876;2023-04-03T03:21:47;2.85;;;2.27;;
27895;SDS011;15241;48.374;10.876;2023-04-03T03:26:46;4.40;;;2.35;;
27895;SDS011;15241;48.374;10.876;2023-04-03T03:31:45;3.30;;;2.22;;
27895;SDS011;15241;48.374;10.876;2023-04-03T03:36:44;2.27;;;1.95;;
27895;SDS011;15241;48.374;10.876;2023-04-03T03:41:43;7.40;;;3.42;;
27895;SDS011;15241;48.374;10.876;2023-04-03T03:46:43;3.72;;;2.30;;
27895;SDS011;15241;48.374;10.876;2023-04-03T03:51:42;2.72;;;2.37;;
27895;SDS011;15241;48.374;10.876;2023-04-03T03:56:41;2.72;;;2.45;;
27895;SDS011;15241;48.374;10.876;2023-04-03T04:01:40;3.12;;;2.42;;
27895;SDS011;15241;48.374;10.876;2023-04-03T04:06:39;4.78;;;2.33;;
27895;SDS011;15241;48.374;10.876;2023-04-03T04:11:38;3.75;;;2.47;;
27895;SDS011;15241;48.374;10.876;2023-04-03T04:16:37;2.98;;;2.27;;
27895;SDS011;15241;48.374;10.876;2023-04-03T04:21:36;4.50;;;2.75;;
27895;SDS011;15241;48.374;10.876;2023-04-03T04:26:35;3.95;;;2.58;;
27895;SDS011;15241;48.374;10.876;2023-04-03T04:31:33;4.03;;;2.25;;
27895;SDS011;15241;48.374;10.876;2023-04-03T04:36:34;2.95;;;2.60;;
27895;SDS011;15241;48.374;10.876;2023-04-03T04:41:33;4.50;;;2.55;;
27895;SDS011;15241;48.374;10.876;2023-04-03T04:46:32;4.42;;;2.70;;
27895;SDS011;15241;48.374;10.876;2023-04-03T04:51:31;3.80;;;2.60;;
27895;SDS011;15241;48.374;10.876;2023-04-03T04:56:31;2.98;;;2.27;;
27895;SDS011;15241;48.374;10.876;2023-04-03T05:01:30;4.40;;;2.90;;
27895;SDS011;15241;48.374;10.876;2023-04-03T05:06:37;5.00;;;2.60;;
27895;SDS011;15241;48.374;10.876;2023-04-03T05:11:36;4.12;;;2.60;;
27895;SDS011;15241;48.374;10.876;2023-04-03T05:16:35;3.75;;;2.90;;
27895;SDS011;15241;48.374;10.876;2023-04-03T05:21:34;4.53;;;2.60;;
27895;SDS011;15241;48.374;10.876;2023-04-03T05:26:33;3.67;;;2.90;;
27895;SDS011;15241;48.374;10.876;2023-04-03T05:31:32;4.00;;;2.80;;
27895;SDS011;15241;48.374;10.876;2023-04-03T05:36:31;2.90;;;2.42;;
27895;SDS011;15241;48.374;10.876;2023-04-03T05:41:30;4.58;;;2.98;;
27895;SDS011;15241;48.374;10.876;2023-04-03T05:46:29;3.12;;;2.60;;
27895;SDS011;15241;48.374;10.876;2023-04-03T05:51:29;3.87;;;2.62;;
27895;SDS011;15241;48.374;10.876;2023-04-03T05:56:30;4.95;;;2.80;;
27895;SDS011;15241;48.374;10.876;2023-04-03T06:01:29;5.70;;;2.98;;
27895;SDS011;15241;48.374;10.876;2023-04-03T06:06:42;7.70;;;2.87;;
27895;SDS011;15241;48.374;10.876;2023-04-03T06:11:42;6.22;;;3.47;;
27895;SDS011;15241;48.374;10.876;2023-04-03T06:16:41;3.67;;;2.90;;
27895;SDS011;15241;48.374;10.876;2023-04-03T06:21:41;4.37;;;2.87;;
27895;SDS011;15241;48.374;10.876;2023-04-03T06:26:40;7.05;;;3.75;;
27895;SDS011;15241;48.374;10.876;2023-04-03T06:31:38;4.53;;;3.10;;
27895;SDS011;15241;48.374;10.876;2023-04-03T06:36:38;8.08;;;3.40;;
27895;SDS011;15241;48.374;10.876;2023-04-03T06:41:37;6.47;;;3.27;;
27895;SDS011;15241;48.374;10.876;2023-04-03T06:46:36;4.05;;;3.02;;
27895;SDS011;15241;48.374;10.876;2023-04-03T06:51:36;4.58;;;3.08;;
27895;SDS011;15241;48.374;10.876;2023-04-03T06:56:35;6.37;;;3.25;;
27895;SDS011;15241;48.374;10.876;2023-04-03T07:01:34;5.25;;;3.20;;
27895;SDS011;15241;48.374;10.876;2023-04-03T07:06:33;4.58;;;3.10;;
27895;SDS011;15241;48.374;10.876;2023-04-03T07:11:32;5.87;;;2.95;;
27895;SDS011;15241;48.374;10.876;2023-04-03T07:16:32;4.00;;;3.22;;
27895;SDS011;15241;48.374;10.876;2023-04-03T07:21:31;5.20;;;3.52;;
27895;SDS011;15241;48.374;10.876;2023-04-03T07:26:31;5.12;;;3.37;;
27895;SDS011;15241;48.374;10.876;2023-04-03T07:31:30;6.60;;;3.00;;
27895;SDS011;15241;48.374;10.876;2023-04-03T07:36:29;4.78;;;3.45;;
27895;SDS011;15241;48.374;10.876;2023-04-03T07:41:28;7.33;;;3.65;;
27895;SDS011;15241;48.374;10.876;2023-04-03T07:46:27;5.37;;;3.37;;
27895;SDS011;15241;48.374;10.876;2023-04-03T07:51:26;5.37;;;3.52;;
27895;SDS011;15241;48.374;10.876;2023-04-03T07:56:25;5.25;;;3.58;;
27895;SDS011;15241;48.374;10.876;2023-04-03T08:01:24;5.08;;;3.58;;
27895;SDS011;15241;48.374;10.876;2023-04-03T08:06:23;6.30;;;3.10;;
27895;SDS011;15241;48.374;10.876;2023-04-03T08:11:22;6.33;;;3.27;;
27895;SDS011;15241;48.374;10.876;2023-04-03T08:16:22;4.75;;;3.27;;
27895;SDS011;15241;48.374;10.876;2023-04-03T08:21:22;5.60;;;3.02;;
27895;SDS011;15241;48.374;10.876;2023-04-03T08:26:21;3.80;;;2.90;;
27895;SDS011;15241;48.374;10.876;2023-04-03T08:31:20;4.42;;;2.58;;
27895;SDS011;15241;48.374;10.876;2023-04-03T08:36:20;3.58;;;2.40;;
27895;SDS011;15241;48.374;10.876;2023-04-03T08:41:22;3.50;;;2.65;;
27895;SDS011;15241;48.374;10.876;2023-04-03T08:46:26;3.75;;;2.92;;
27895;SDS011;15241;48.374;10.876;2023-04-03T08:51:26;5.17;;;2.50;;
27895;SDS011;15241;48.374;10.876;2023-04-03T08:56:27;5.58;;;2.70;;
27895;SDS011;15241;48.374;10.876;2023-04-03T09:01:27;4.03;;;2.60;;
27895;SDS011;15241;48.374;10.876;2023-04-03T09:06:29;4.90;;;2.45;;
27895;SDS011;15241;48.374;10.876;2023-04-03T09:11:34;3.95;;;2.55;;
27895;SDS011;15241;48.374;10.876;2023-04-03T09:16:39;7.05;;;3.67;;
27895;SDS011;15241;48.374;10.876;2023-04-03T09:21:38;3.62;;;2.80;;
27895;SDS011;15241;48.374;10.876;2023-04-03T09:26:40;5.03;;;2.65;;
27895;SDS011;15241;48.374;10.876;2023-04-03T09:31:43;4.08;;;2.50;;
27895;SDS011;15241;48.374;10.876;2023-04-03T09:36:43;5.40;;;3.37;;
27895;SDS011;15241;48.374;10.876;2023-04-03T09:41:54;7.83;;;2.75;;
27895;SDS011;15241;48.374;10.876;2023-04-03T09:47:17;3.72;;;2.42;;
27895;SDS011;15241;48.374;10.876;2023-04-03T09:52:19;6.55;;;2.55;;
27895;SDS011;15241;48.374;10.876;2023-04-03T09:57:20;3.47;;;2.37;;
27895;SDS011;15241;48.374;10.876;2023-04-03T10:02:30;4.12;;;2.45;;
27895;SDS011;15241;48.374;10.876;2023-04-03T10:07:35;5.97;;;3.08;;
27895;SDS011;15241;48.374;10.876;2023-04-03T10:12:35;4.50;;;3.00;;
27895;SDS011;15241;48.374;10.876;2023-04-03T10:17:37;3.98;;;2.55;;
27895;SDS011;15241;48.374;10.876;2023-04-03T10:22:42;2.58;;;2.12;;
27895;SDS011;15241;48.374;10.876;2023-04-03T10:27:47;5.35;;;2.58;;
27895;SDS011;15241;48.374;10.876;2023-04-03T10:32:52;4.53;;;2.98;;
27895;SDS011;15241;48.374;10.876;2023-04-03T10:37:58;3.08;;;2.40;;
27895;SDS011;15241;48.374;10.876;2023-04-03T10:43:02;4.55;;;2.58;;
27895;SDS011;15241;48.374;10.876;2023-04-03T10:48:06;9.20;;;2.72;;
27895;SDS011;15241;48.374;10.876;2023-04-03T10:53:08;6.05;;;2.62;;
27895;SDS011;15241;48.374;10.876;2023-04-03T10:58:12;3.55;;;2.80;;
27895;SDS011;15241;48.374;10.876;2023-04-03T11:03:27;4.22;;;2.90;;
27895;SDS011;15241;48.374;10.876;2023-04-03T11:08:28;5.42;;;2.58;;
27895;SDS011;15241;48.374;10.876;2023-04-03T11:13:30;3.77;;;2.67;;
27895;SDS011;15241;48.374;10.876;2023-04-03T11:18:32;4.58;;;2.62;;
27895;SDS011;15241;48.374;10.876;2023-04-03T11:23:35;4.87;;;2.85;;
27895;SDS011;15241;48.374;10.876;2023-04-03T11:28:36;4.30;;;2.98;;
27895;SDS011;15241;48.374;10.876;2023-04-03T11:33:38;3.92;;;2.70;;
27895;SDS011;15241;48.374;10.876;2023-04-03T11:38:42;5.55;;;2.87;;
27895;SDS011;15241;48.374;10.876;2023-04-03T11:43:55;4.65;;;2.65;;
27895;SDS011;15241;48.374;10.876;2023-04-03T11:49:01;2.67;;;2.33;;
27895;SDS011;15241;48.374;10.876;2023-04-03T11:54:10;4.05;;;2.50;;
27895;SDS011;15241;48.374;10.876;2023-04-03T11:59:27;2.60;;;2.25;;
27895;SDS011;15241;48.374;10.876;2023-04-03T12:04:29;3.92;;;2.17;;
27895;SDS011;15241;48.374;10.876;2023-04-03T12:15:22;2.87;;;1.90;;
27895;SDS011;15241;48.374;10.876;2023-04-03T12:25:50;4.17;;;1.87;;
27895;SDS011;15241;48.374;10.876;2023-04-03T12:30:51;3.22;;;2.20;;
27895;SDS011;15241;48.374;10.876;2023-04-03T12:35:55;7.47;;;3.47;;
27895;SDS011;15241;48.374;10.876;2023-04-03T12:40:57;3.02;;;2.20;;
27895;SDS011;15241;48.374;10.876;2023-04-03T12:46:03;4.17;;;1.92;;
27895;SDS011;15241;48.374;10.876;2023-04-03T12:51:06;2.42;;;1.90;;
27895;SDS011;15241;48.374;10.876;2023-04-03T13:01:31;2.72;;;1.52;;
27895;SDS011;15241;48.374;10.876;2023-04-03T13:06:32;3.87;;;2.02;;
27895;SDS011;15241;48.374;10.876;2023-04-03T13:11:33;3.45;;;1.77;;
27895;SDS011;15241;48.374;10.876;2023-04-03T13:16:34;4.65;;;1.85;;
27895;SDS011;15241;48.374;10.876;2023-04-03T13:21:33;3.33;;;1.65;;
27895;SDS011;15241;48.374;10.876;2023-04-03T13:26:33;2.52;;;1.70;;
27895;SDS011;15241;48.374;10.876;2023-04-03T13:31:33;3.17;;;1.60;;
27895;SDS011;15241;48.374;10.876;2023-04-03T13:36:34;1.95;;;1.50;;
27895;SDS011;15241;48.374;10.876;2023-04-03T13:41:35;2.67;;;1.57;;
27895;SDS011;15241;48.374;10.876;2023-04-03T13:46:36;2.33;;;1.37;;
27895;SDS011;15241;48.374;10.876;2023-04-03T13:51:37;2.20;;;1.20;;
27895;SDS011;15241;48.374;10.876;2023-04-03T13:56:36;1.92;;;1.40;;
27895;SDS011;15241;48.374;10.876;2023-04-03T14:01:43;2.27;;;1.30;;
27895;SDS011;15241;48.374;10.876;2023-04-03T14:06:44;3.85;;;1.60;;
27895;SDS011;15241;48.374;10.876;2023-04-03T14:11:44;2.33;;;1.60;;
27895;SDS011;15241;48.374;10.876;2023-04-03T14:16:45;4.30;;;1.50;;
27895;SDS011;15241;48.374;10.876;2023-04-03T14:21:46;5.40;;;1.67;;
27895;SDS011;15241;48.374;10.876;2023-04-03T14:26:46;1.90;;;1.47;;
27895;SDS011;15241;48.374;10.876;2023-04-03T14:31:46;2.45;;;1.40;;
27895;SDS011;15241;48.374;10.876;2023-04-03T14:36:46;3.35;;;1.50;;
27895;SDS011;15241;48.374;10.876;2023-04-03T14:41:45;2.40;;;1.30;;
27895;SDS011;15241;48.374;10.876;2023-04-03T14:46:44;1.90;;;1.27;;
27895;SDS011;15241;48.374;10.876;2023-04-03T14:51:43;2.58;;;1.55;;
27895;SDS011;15241;48.374;10.876;2023-04-03T14:56:42;1.82;;;1.22;;
27895;SDS011;15241;48.374;10.876;2023-04-03T15:01:41;2.52;;;1.30;;
27895;SDS011;15241;48.374;10.876;2023-04-03T15:06:40;3.67;;;1.52;;
27895;SDS011;15241;48.374;10.876;2023-04-03T15:11:40;2.40;;;1.30;;
27895;SDS011;15241;48.374;10.876;2023-04-03T15:16:38;2.77;;;1.40;;
27895;SDS011;15241;48.374;10.876;2023-04-03T15:21:38;3.27;;;1.62;;
27895;SDS011;15241;48.374;10.876;2023-04-03T15:26:37;1.30;;;1.20;;
27895;SDS011;15241;48.374;10.876;2023-04-03T15:31:36;2.60;;;1.50;;
27895;SDS011;15241;48.374;10.876;2023-04-03T15:36:35;3.65;;;1.37;;
27895;SDS011;15241;48.374;10.876;2023-04-03T15:41:34;3.58;;;1.37;;
27895;SDS011;15241;48.374;10.876;2023-04-03T15:46:33;3.75;;;1.75;;
27895;SDS011;15241;48.374;10.876;2023-04-03T15:51:32;2.87;;;1.15;;
27895;SDS011;15241;48.374;10.876;2023-04-03T15:56:31;2.72;;;1.27;;
27895;SDS011;15241;48.374;10.876;2023-04-03T16:01:30;2.67;;;1.15;;
27895;SDS011;15241;48.374;10.876;2023-04-03T16:06:30;3.92;;;1.30;;
27895;SDS011;15241;48.374;10.876;2023-04-03T16:11:29;2.35;;;1.10;;
27895;SDS011;15241;48.374;10.876;2023-04-03T16:16:28;2.67;;;1.52;;
27895;SDS011;15241;48.374;10.876;2023-04-03T16:21:28;1.52;;;1.10;;
27895;SDS011;15241;48.374;10.876;2023-04-03T16:26:27;2.65;;;1.52;;
27895;SDS011;15241;48.374;10.876;2023-04-03T16:31:26;3.00;;;1.52;;
27895;SDS011;15241;48.374;10.876;2023-04-03T16:36:25;2.45;;;1.22;;
27895;SDS011;15241;48.374;10.876;2023-04-03T16:41:25;2.70;;;1.80;;
27895;SDS011;15241;48.374;10.876;2023-04-03T16:46:24;1.95;;;1.42;;
27895;SDS011;15241;48.374;10.876;2023-04-03T16:51:22;7.15;;;1.77;;
27895;SDS011;15241;48.374;10.876;2023-04-03T16:56:21;2.08;;;1.30;;
27895;SDS011;15241;48.374;10.876;2023-04-03T17:01:21;3.02;;;1.50;;
27895;SDS011;15241;48.374;10.876;2023-04-03T17:06:21;1.00;;;0.85;;
27895;SDS011;15241;48.374;10.876;2023-04-03T17:11:20;2.35;;;1.12;;
27895;SDS011;15241;48.374;10.876;2023-04-03T17:16:19;2.30;;;1.55;;
27895;SDS011;15241;48.374;10.876;2023-04-03T17:21:19;3.27;;;1.20;;
27895;SDS011;15241;48.374;10.876;2023-04-03T17:26:18;3.25;;;1.20;;
27895;SDS011;15241;48.374;10.876;2023-04-03T17:31:17;4.15;;;1.20;;
27895;SDS011;15241;48.374;10.876;2023-04-03T17:36:16;4.28;;;2.60;;
27895;SDS011;15241;48.374;10.876;2023-04-03T17:41:15;2.02;;;1.42;;
27895;SDS011;15241;48.374;10.876;2023-04-03T17:46:14;5.97;;;1.40;;
27895;SDS011;15241;48.374;10.876;2023-04-03T17:51:14;3.20;;;1.32;;
27895;SDS011;15241;48.374;10.876;2023-04-03T17:56:16;4.10;;;1.60;;
27895;SDS011;15241;48.374;10.876;2023-04-03T18:01:17;4.55;;;3.02;;
27895;SDS011;15241;48.374;10.876;2023-04-03T18:06:19;2.10;;;1.37;;
27895;SDS011;15241;48.374;10.876;2023-04-03T18:11:19;6.97;;;1.60;;
27895;SDS011;15241;48.374;10.876;2023-04-03T18:16:19;5.75;;;1.85;;
27895;SDS011;15241;48.374;10.876;2023-04-03T18:21:18;3.33;;;1.65;;
27895;SDS011;15241;48.374;10.876;2023-04-03T18:26:17;4.72;;;1.72;;
27895;SDS011;15241;48.374;10.876;2023-04-03T18:31:16;2.72;;;1.65;;
27895;SDS011;15241;48.374;10.876;2023-04-03T18:36:16;4.60;;;1.90;;
27895;SDS011;15241;48.374;10.876;2023-04-03T18:41:15;4.87;;;1.65;;
27895;SDS011;15241;48.374;10.876;2023-04-03T18:46:15;3.35;;;1.90;;
27895;SDS011;15241;48.374;10.876;2023-04-03T18:51:14;4.20;;;2.20;;
27895;SDS011;15241;48.374;10.876;2023-04-03T18:56:14;3.47;;;1.80;;
27895;SDS011;15241;48.374;10.876;2023-04-03T19:01:13;3.77;;;2.15;;
27895;SDS011;15241;48.374;10.876;2023-04-03T19:06:13;3.77;;;2.22;;
27895;SDS011;15241;48.374;10.876;2023-04-03T19:11:12;3.33;;;1.52;;
27895;SDS011;15241;48.374;10.876;2023-04-03T19:16:11;3.15;;;2.00;;
27895;SDS011;15241;48.374;10.876;2023-04-03T19:21:10;3.80;;;1.47;;
27895;SDS011;15241;48.374;10.876;2023-04-03T19:26:09;3.45;;;1.98;;
27895;SDS011;15241;48.374;10.876;2023-04-03T19:31:10;5.97;;;1.95;;
27895;SDS011;15241;48.374;10.876;2023-04-03T19:36:18;4.70;;;2.00;;
27895;SDS011;15241;48.374;10.876;2023-04-03T19:41:18;3.02;;;2.08;;
27895;SDS011;15241;48.374;10.876;2023-04-03T19:46:20;4.15;;;1.70;;
27895;SDS011;15241;48.374;10.876;2023-04-03T19:51:28;3.37;;;1.70;;
27895;SDS011;15241;48.374;10.876;2023-04-03T19:56:27;4.15;;;1.92;;
27895;SDS011;15241;48.374;10.876;2023-04-03T20:01:26;3.77;;;1.57;;
27895;SDS011;15241;48.374;10.876;2023-04-03T20:06:24;4.12;;;1.72;;
27895;SDS011;15241;48.374;10.876;2023-04-03T20:11:23;4.33;;;1.50;;
27895;SDS011;15241;48.374;10.876;2023-04-03T20:16:22;5.35;;;2.72;;
27895;SDS011;15241;48.374;10.876;2023-04-03T20:21:25;3.95;;;1.80;;
27895;SDS011;15241;48.374;10.876;2023-04-03T20:26:26;2.77;;;1.85;;
27895;SDS011;15241;48.374;10.876;2023-04-03T20:31:27;3.98;;;2.67;;
27895;SDS011;15241;48.374;10.876;2023-04-03T20:36:27;2.85;;;1.57;;
27895;SDS011;15241;48.374;10.876;2023-04-03T20:41:26;3.65;;;1.85;;
27895;SDS011;15241;48.374;10.876;2023-04-03T20:46:25;3.37;;;1.80;;
27895;SDS011;15241;48.374;10.876;2023-04-03T20:51:24;6.00;;;1.82;;
27895;SDS011;15241;48.374;10.876;2023-04-03T20:56:23;6.45;;;1.70;;
27895;SDS011;15241;48.374;10.876;2023-04-03T21:01:24;2.80;;;1.77;;
27895;SDS011;15241;48.374;10.876;2023-04-03T21:22:28;3.27;;;1.77;;
27895;SDS011;15241;48.374;10.876;2023-04-03T21:27:27;3.83;;;1.70;;
27895;SDS011;15241;48.374;10.876;2023-04-03T21:32:26;4.50;;;1.80;;
27895;SDS011;15241;48.374;10.876;2023-04-03T21:37:25;7.47;;;1.92;;
27895;SDS011;15241;48.374;10.876;2023-04-03T21:42:24;7.20;;;2.00;;
27895;SDS011;15241;48.374;10.876;2023-04-03T21:47:23;3.50;;;2.20;;
27895;SDS011;15241;48.374;10.876;2023-04-03T21:52:21;3.37;;;1.90;;
27895;SDS011;15241;48.374;10.876;2023-04-03T21:57:20;5.35;;;2.33;;
27895;SDS011;15241;48.374;10.876;2023-04-03T22:02:19;5.12;;;2.17;;
27895;SDS011;15241;48.374;10.876;2023-04-03T22:07:18;2.75;;;1.75;;
27895;SDS011;15241;48.374;10.876;2023-04-03T22:12:17;2.12;;;1.52;;
27895;SDS011;15241;48.374;10.876;2023-04-03T22:17:16;2.92;;;1.80;;
27895;SDS011;15241;48.374;10.876;2023-04-03T22:22:15;3.45;;;1.75;;
27895;SDS011;15241;48.374;10.876;2023-04-03T22:27:14;7.42;;;1.92;;
27895;SDS011;15241;48.374;10.876;2023-04-03T22:32:13;6.47;;;2.50;;
27895;SDS011;15241;48.374;10.876;2023-04-03T22:37:12;3.98;;;1.72;;
27895;SDS011;15241;48.374;10.876;2023-04-03T22:42:11;2.80;;;1.55;;
27895;SDS011;15241;48.374;10.876;2023-04-03T22:47:10;3.55;;;1.85;;
27895;SDS011;15241;48.374;10.876;2023-04-03T22:52:09;3.98;;;1.90;;
27895;SDS011;15241;48.374;10.876;2023-04-03T22:57:08;4.15;;;1.90;;
27895;SDS011;15241;48.374;10.876;2023-04-03T23:02:07;4.53;;;2.02;;
27895;SDS011;15241;48.374;10.876;2023-04-03T23:07:06;5.03;;;1.47;;
27895;SDS011;15241;48.374;10.876;2023-04-03T23:12:05;2.52;;;1.62;;
27895;SDS011;15241;48.374;10.876;2023-04-03T23:17:04;3.77;;;1.80;;
27895;SDS011;15241;48.374;10.876;2023-04-03T23:22:03;4.58;;;1.57;;
27895;SDS011;15241;48.374;10.876;2023-04-03T23:27:02;2.60;;;1.95;;
27895;SDS011;15241;48.374;10.876;2023-04-03T23:32:01;4.20;;;2.27;;
27895;SDS011;15241;48.374;10.876;2023-04-03T23:48:08;3.37;;;2.62;;
27895;SDS011;15241;48.374;10.876;2023-04-03T23:53:07;3.58;;;2.05;;
27895;SDS011;15241;48.374;10.876;2023-04-03T23:58:06;3.62;;;2.27;;
